createdAt,value
2023-04-07T00:01:18.073Z,13.31
2023-04-07T00:03:45.304Z,13.31
2023-04-07T00:06:12.535Z,13.29
2023-04-07T00:08:39.516Z,13.25
2023-04-07T00:11:07.158Z,13.19
2023-04-07T00:13:35.401Z,13.16
2023-04-07T00:16:02.506Z,13.12
2023-04-07T00:18:29.437Z,13.08
2023-04-07T00:20:56.901Z,13.03
2023-04-07T00:23:23.854Z,13.04
2023-04-07T00:25:50.926Z,12.99
2023-04-07T00:28:17.850Z,12.93
2023-04-07T00:30:46.221Z,12.87
2023-04-07T00:33:13.178Z,12.82
2023-04-07T00:35:40.210Z,12.74
2023-04-07T00:38:07.138Z,12.64
2023-04-07T00:40:34.333Z,12.63
2023-04-07T00:43:01.266Z,12.66
2023-04-07T00:45:28.238Z,12.67
2023-04-07T00:47:58.026Z,12.64
2023-04-07T00:50:25.448Z,12.57
2023-04-07T00:52:54.481Z,12.55
2023-04-07T00:55:21.535Z,12.54
2023-04-07T00:57:48.520Z,12.52
2023-04-07T01:00:16.052Z,12.45
2023-04-07T01:02:52.438Z,12.38
2023-04-07T01:05:28.596Z,12.37
2023-04-07T01:08:08.709Z,12.36
2023-04-07T01:10:43.900Z,12.35
2023-04-07T01:13:24.062Z,12.35
2023-04-07T01:15:56.997Z,12.38
2023-04-07T01:18:30.941Z,12.39
2023-04-07T01:21:06.374Z,12.41
2023-04-07T01:24:03.578Z,12.43
2023-04-07T01:26:33.487Z,12.46
2023-04-07T01:29:27.793Z,12.44
2023-04-07T01:31:58.218Z,12.48
2023-04-07T01:34:27.557Z,12.49
2023-04-07T01:36:57.239Z,12.51
2023-04-07T01:39:26.991Z,12.52
2023-04-07T01:41:56.112Z,12.52
2023-04-07T01:44:25.683Z,12.54
2023-04-07T01:46:53.991Z,12.55
2023-04-07T01:49:21.977Z,12.56
2023-04-07T01:51:50.497Z,12.57
2023-04-07T01:54:18.690Z,12.57
2023-04-07T01:56:45.897Z,12.56
2023-04-07T01:59:12.914Z,12.55
2023-04-07T02:01:41.501Z,12.53
2023-04-07T02:04:16.540Z,12.47
2023-04-07T02:06:52.579Z,12.41
2023-04-07T02:09:22.519Z,12.33
2023-04-07T02:11:52.870Z,12.28
2023-04-07T02:14:22.615Z,12.22
2023-04-07T02:16:52.917Z,12.11
2023-04-07T02:19:20.888Z,12.06
2023-04-07T02:21:52.057Z,12.04
2023-04-07T02:24:23.497Z,12.01
2023-04-07T02:26:50.491Z,11.99
2023-04-07T02:29:17.592Z,11.95
2023-04-07T02:31:44.648Z,11.93
2023-04-07T02:34:12.987Z,11.95
2023-04-07T02:36:39.925Z,11.88
2023-04-07T02:39:09.212Z,11.88
2023-04-07T02:41:36.273Z,11.81
2023-04-07T02:44:03.186Z,11.82
2023-04-07T02:46:30.239Z,11.78
2023-04-07T02:48:57.246Z,11.81
2023-04-07T02:51:27.035Z,11.85
2023-04-07T02:53:54.180Z,11.88
2023-04-07T02:56:21.278Z,11.88
2023-04-07T02:58:48.276Z,11.85
2023-04-07T03:01:15.393Z,11.83
2023-04-07T03:03:44.741Z,11.81
2023-04-07T03:06:11.743Z,11.76
2023-04-07T03:08:40.234Z,11.74
2023-04-07T03:11:07.172Z,11.68
2023-04-07T03:13:34.112Z,11.63
2023-04-07T03:16:01.046Z,11.57
2023-04-07T03:18:28.116Z,11.55
2023-04-07T03:20:57.087Z,11.55
2023-04-07T03:23:24.186Z,11.55
2023-04-07T03:25:52.649Z,11.56
2023-04-07T03:28:19.767Z,11.56
2023-04-07T03:30:46.826Z,11.57
2023-04-07T03:33:14.009Z,11.53
2023-04-07T03:35:41.191Z,11.50
2023-04-07T03:38:08.310Z,11.49
2023-04-07T03:40:35.727Z,11.46
2023-04-07T03:43:04.138Z,11.43
2023-04-07T03:45:31.117Z,11.39
2023-04-07T03:47:58.045Z,11.35
2023-04-07T03:50:25.271Z,11.31
2023-04-07T03:52:52.332Z,11.29
2023-04-07T03:55:19.258Z,11.26
2023-04-07T03:57:46.860Z,11.25
2023-04-07T04:00:15.809Z,11.24
2023-04-07T04:02:42.823Z,11.24
2023-04-07T04:05:09.838Z,11.25
2023-04-07T04:07:36.806Z,11.24
2023-04-07T04:10:04.100Z,11.21
2023-04-07T04:12:31.412Z,11.20
2023-04-07T04:14:58.430Z,11.20
2023-04-07T04:17:26.905Z,11.18
2023-04-07T04:19:55.148Z,11.19
2023-04-07T04:22:22.169Z,11.19
2023-04-07T04:24:49.110Z,11.18
2023-04-07T04:27:16.359Z,11.16
2023-04-07T04:29:43.226Z,11.14
2023-04-07T04:32:10.300Z,11.11
2023-04-07T04:34:39.475Z,11.09
2023-04-07T04:37:06.488Z,11.06
2023-04-07T04:39:33.460Z,11.04
2023-04-07T04:42:01.104Z,11.01
2023-04-07T04:44:30.045Z,10.99
2023-04-07T04:46:57.180Z,10.97
2023-04-07T04:49:24.129Z,10.96
2023-04-07T04:51:52.351Z,10.95
2023-04-07T04:54:19.824Z,10.93
2023-04-07T04:56:46.673Z,10.92
2023-04-07T04:59:13.601Z,10.92
2023-04-07T05:01:40.574Z,10.91
2023-04-07T05:04:09.357Z,10.91
2023-04-07T05:06:36.505Z,10.90
2023-04-07T05:09:04.794Z,10.91
2023-04-07T05:11:31.741Z,10.92
2023-04-07T05:13:58.666Z,10.92
2023-04-07T05:16:26.533Z,10.92
2023-04-07T05:18:53.576Z,10.92
2023-04-07T05:21:21.930Z,10.92
2023-04-07T05:23:48.847Z,10.92
2023-04-07T05:26:17.109Z,10.92
2023-04-07T05:28:44.014Z,10.94
2023-04-07T05:31:11.233Z,10.95
2023-04-07T05:33:38.218Z,10.97
2023-04-07T05:36:06.696Z,10.99
2023-04-07T05:38:33.931Z,11.02
2023-04-07T05:41:01.112Z,11.03
2023-04-07T05:43:29.384Z,11.05
2023-04-07T05:45:56.542Z,11.09
2023-04-07T05:48:23.449Z,11.13
2023-04-07T05:50:50.423Z,11.16
2023-04-07T05:53:17.391Z,11.21
2023-04-07T05:55:44.423Z,11.23
2023-04-07T05:58:11.353Z,11.27
2023-04-07T06:00:41.472Z,11.28
2023-04-07T06:03:08.533Z,11.30
2023-04-07T06:05:35.583Z,11.32
2023-04-07T06:08:02.678Z,11.36
2023-04-07T06:10:29.687Z,11.40
2023-04-07T06:12:56.744Z,11.45
2023-04-07T06:15:24.082Z,11.51
2023-04-07T06:17:52.400Z,11.54
2023-04-07T06:20:21.596Z,11.54
2023-04-07T06:22:48.658Z,11.56
2023-04-07T06:25:15.802Z,11.57
2023-04-07T06:27:42.734Z,11.64
2023-04-07T06:30:11.429Z,11.67
2023-04-07T06:32:38.344Z,11.74
2023-04-07T06:35:07.850Z,11.77
2023-04-07T06:37:34.825Z,11.78
2023-04-07T06:40:01.750Z,11.83
2023-04-07T06:42:28.694Z,11.84
2023-04-07T06:44:55.611Z,11.90
2023-04-07T06:47:22.658Z,11.98
2023-04-07T06:49:49.549Z,12.10
2023-04-07T06:52:17.820Z,12.18
2023-04-07T06:54:44.856Z,12.29
2023-04-07T06:57:12.150Z,12.39
2023-04-07T06:59:39.303Z,12.48
2023-04-07T07:02:07.577Z,12.51
2023-04-07T07:04:35.024Z,12.61
2023-04-07T07:07:03.143Z,12.69
2023-04-07T07:09:31.530Z,12.78
2023-04-07T07:11:58.607Z,12.90
2023-04-07T07:14:26.019Z,13.22
2023-04-07T07:16:52.952Z,13.71
2023-04-07T07:19:20.184Z,14.22
2023-04-07T07:21:47.143Z,14.86
2023-04-07T07:24:14.486Z,15.47
2023-04-07T07:26:44.536Z,16.11
2023-04-07T07:29:11.654Z,16.77
2023-04-07T07:31:38.729Z,17.48
2023-04-07T07:34:07.446Z,18.17
2023-04-07T07:36:34.616Z,18.86
2023-04-07T07:39:01.672Z,19.57
2023-04-07T07:41:29.165Z,20.28
2023-04-07T07:43:57.385Z,20.84
2023-04-07T07:46:26.098Z,21.43
2023-04-07T07:48:53.452Z,21.83
2023-04-07T07:51:20.447Z,22.10
2023-04-07T07:53:47.667Z,22.43
2023-04-07T07:56:14.841Z,22.92
2023-04-07T07:58:41.816Z,23.32
2023-04-07T08:01:10.374Z,23.63
2023-04-07T08:03:38.048Z,24.10
2023-04-07T08:06:06.382Z,24.69
2023-04-07T08:08:33.354Z,25.19
2023-04-07T08:11:00.608Z,25.62
2023-04-07T08:13:27.734Z,26.10
2023-04-07T08:15:54.830Z,26.44
2023-04-07T08:18:25.251Z,26.74
2023-04-07T08:20:52.699Z,27.00
2023-04-07T08:23:19.808Z,27.31
2023-04-07T08:25:46.745Z,27.45
2023-04-07T08:28:13.682Z,27.66
2023-04-07T08:30:40.647Z,27.88
2023-04-07T08:33:07.798Z,28.21
2023-04-07T08:35:36.580Z,28.36
2023-04-07T08:38:03.949Z,28.57
2023-04-07T08:40:32.761Z,28.82
2023-04-07T08:43:03.063Z,28.90
2023-04-07T08:45:32.581Z,28.96
2023-04-07T08:48:04.759Z,29.10
2023-04-07T08:50:33.273Z,29.05
2023-04-07T08:53:08.942Z,28.81
2023-04-07T08:55:36.418Z,28.45
2023-04-07T08:58:04.172Z,28.14
2023-04-07T09:00:31.825Z,28.29
2023-04-07T09:03:03.340Z,28.32
2023-04-07T09:05:32.418Z,27.75
2023-04-07T09:08:02.403Z,27.73
2023-04-07T09:10:29.493Z,28.05
2023-04-07T09:12:58.759Z,28.59
2023-04-07T09:15:30.698Z,28.59
2023-04-07T09:17:58.341Z,28.67
2023-04-07T09:20:25.838Z,28.94
2023-04-07T09:22:52.953Z,29.34
2023-04-07T09:25:23.998Z,29.64
2023-04-07T09:27:59.533Z,29.70
2023-04-07T09:30:27.883Z,29.97
2023-04-07T09:32:55.864Z,30.46
2023-04-07T09:35:23.842Z,30.93
2023-04-07T09:38:07.644Z,31.37
2023-04-07T09:40:37.520Z,31.61
2023-04-07T09:43:17.682Z,31.41
2023-04-07T09:45:44.924Z,31.29
2023-04-07T09:48:20.656Z,31.65
2023-04-07T09:50:51.842Z,31.89
2023-04-07T09:53:23.118Z,32.24
2023-04-07T09:55:52.751Z,32.55
2023-04-07T09:58:20.563Z,32.43
2023-04-07T10:00:48.150Z,32.10
2023-04-07T10:03:15.710Z,32.08
2023-04-07T10:05:44.463Z,32.26
2023-04-07T10:08:12.165Z,32.13
2023-04-07T10:10:43.109Z,32.23
2023-04-07T10:13:12.637Z,32.46
2023-04-07T10:15:40.562Z,32.34
2023-04-07T10:18:08.828Z,32.31
2023-04-07T10:20:39.443Z,32.38
2023-04-07T10:23:18.936Z,32.65
2023-04-07T10:25:48.780Z,32.64
2023-04-07T10:28:20.561Z,33.02
2023-04-07T10:30:49.943Z,33.53
2023-04-07T10:33:18.641Z,33.78
2023-04-07T10:36:05.379Z,33.92
2023-04-07T10:38:32.816Z,33.96
2023-04-07T10:40:59.960Z,33.84
2023-04-07T10:43:42.040Z,33.62
2023-04-07T10:46:09.263Z,33.57
2023-04-07T10:48:36.594Z,33.50
2023-04-07T10:51:19.674Z,33.38
2023-04-07T10:54:21.105Z,33.00
2023-04-07T10:57:16.911Z,32.78
2023-04-07T11:00:16.406Z,32.73
2023-04-07T11:02:44.622Z,32.73
2023-04-07T11:05:22.692Z,32.67
2023-04-07T11:07:55.146Z,32.63
2023-04-07T11:10:23.188Z,32.37
2023-04-07T11:13:06.257Z,32.05
2023-04-07T11:15:40.616Z,32.00
2023-04-07T11:18:19.743Z,31.73
2023-04-07T11:20:50.717Z,31.51
2023-04-07T11:23:20.774Z,31.44
2023-04-07T11:25:50.777Z,31.65
2023-04-07T11:28:18.696Z,31.95
2023-04-07T11:30:52.079Z,32.16
2023-04-07T11:33:22.086Z,32.21
2023-04-07T11:35:55.859Z,32.07
2023-04-07T11:38:26.093Z,31.73
2023-04-07T11:40:54.469Z,31.30
2023-04-07T11:43:24.758Z,31.16
2023-04-07T11:46:10.797Z,30.98
2023-04-07T11:48:40.006Z,30.72
2023-04-07T11:51:16.317Z,30.81
2023-04-07T11:53:43.572Z,30.97
2023-04-07T11:56:17.576Z,31.11
2023-04-07T11:58:48.611Z,31.26
2023-04-07T12:01:17.799Z,31.51
2023-04-07T12:03:59.904Z,31.57
2023-04-07T12:06:34.899Z,31.55
2023-04-07T12:09:03.340Z,31.45
2023-04-07T12:11:31.766Z,31.26
2023-04-07T12:13:59.372Z,31.19
2023-04-07T12:16:27.769Z,31.20
2023-04-07T12:18:55.113Z,31.33
2023-04-07T12:21:22.060Z,31.02
2023-04-07T12:23:49.235Z,30.87
2023-04-07T12:26:16.421Z,30.47
2023-04-07T12:28:43.464Z,29.95
2023-04-07T12:31:10.963Z,29.44
2023-04-07T12:33:39.251Z,29.10
2023-04-07T12:36:06.995Z,28.67
2023-04-07T12:38:33.955Z,28.33
2023-04-07T12:41:03.406Z,28.05
2023-04-07T12:43:30.986Z,28.27
2023-04-07T12:45:58.400Z,28.85
2023-04-07T12:48:27.280Z,29.47
2023-04-07T12:50:55.685Z,30.11
2023-04-07T12:53:22.754Z,30.13
2023-04-07T12:55:50.521Z,29.52
2023-04-07T12:58:18.420Z,29.32
2023-04-07T13:00:46.827Z,29.39
2023-04-07T13:03:14.253Z,29.31
2023-04-07T13:05:41.422Z,29.13
2023-04-07T13:08:10.377Z,29.07
2023-04-07T13:10:37.439Z,28.91
2023-04-07T13:13:04.324Z,28.59
2023-04-07T13:15:31.431Z,28.23
2023-04-07T13:17:58.942Z,28.02
2023-04-07T13:20:28.150Z,27.67
2023-04-07T13:23:06.957Z,27.17
2023-04-07T13:25:37.402Z,26.92
2023-04-07T13:28:04.928Z,27.04
2023-04-07T13:30:32.350Z,26.86
2023-04-07T13:32:59.475Z,26.79
2023-04-07T13:35:26.595Z,26.90
2023-04-07T13:37:53.671Z,27.10
2023-04-07T13:40:20.623Z,27.38
2023-04-07T13:42:48.844Z,27.75
2023-04-07T13:45:15.762Z,28.18
2023-04-07T13:47:42.760Z,28.46
2023-04-07T13:50:10.788Z,28.60
2023-04-07T13:52:37.701Z,28.44
2023-04-07T13:55:06.048Z,28.38
2023-04-07T13:57:33.092Z,28.10
2023-04-07T14:00:01.757Z,27.78
2023-04-07T14:02:30.258Z,27.59
2023-04-07T14:04:57.753Z,27.32
2023-04-07T14:07:24.662Z,27.02
2023-04-07T14:09:51.576Z,26.96
2023-04-07T14:12:21.278Z,27.14
2023-04-07T14:14:52.023Z,27.14
2023-04-07T14:17:20.516Z,27.09
2023-04-07T14:19:48.134Z,27.19
2023-04-07T14:22:15.295Z,27.10
2023-04-07T14:24:42.233Z,26.94
2023-04-07T14:27:09.224Z,26.64
2023-04-07T14:29:36.427Z,26.51
2023-04-07T14:32:04.106Z,26.51
2023-04-07T14:34:32.868Z,26.61
2023-04-07T14:36:59.918Z,26.62
2023-04-07T14:39:26.864Z,26.71
2023-04-07T14:41:54.097Z,26.56
2023-04-07T14:44:21.301Z,26.45
2023-04-07T14:46:48.348Z,26.43
2023-04-07T14:49:15.472Z,26.21
2023-04-07T14:51:44.508Z,25.98
2023-04-07T14:54:11.402Z,25.86
2023-04-07T14:56:38.426Z,25.78
2023-04-07T14:59:05.633Z,25.66
2023-04-07T15:01:32.708Z,25.68
2023-04-07T15:04:00.797Z,25.77
2023-04-07T15:06:28.005Z,26.06
2023-04-07T15:08:56.350Z,26.36
2023-04-07T15:11:23.284Z,26.53
2023-04-07T15:13:50.634Z,26.43
2023-04-07T15:16:18.106Z,26.32
2023-04-07T15:18:47.031Z,25.98
2023-04-07T15:21:15.213Z,25.81
2023-04-07T15:23:42.670Z,25.90
2023-04-07T15:26:11.235Z,25.93
2023-04-07T15:28:38.585Z,26.00
2023-04-07T15:31:09.859Z,25.98
2023-04-07T15:33:38.706Z,25.95
2023-04-07T15:36:07.401Z,25.76
2023-04-07T15:38:34.402Z,25.69
2023-04-07T15:41:01.391Z,25.50
2023-04-07T15:43:29.853Z,25.42
2023-04-07T15:45:56.864Z,25.19
2023-04-07T15:48:24.112Z,25.06
2023-04-07T15:50:51.893Z,24.93
2023-04-07T15:53:18.878Z,24.82
2023-04-07T15:55:45.834Z,24.81
2023-04-07T15:58:12.802Z,24.71
2023-04-07T16:00:41.679Z,24.56
2023-04-07T16:03:08.837Z,24.55
2023-04-07T16:05:37.817Z,24.29
2023-04-07T16:08:05.002Z,24.00
2023-04-07T16:10:31.968Z,23.71
2023-04-07T16:12:58.907Z,23.42
2023-04-07T16:18:01.017Z,22.72
2023-04-07T16:20:28.041Z,22.40
2023-04-07T16:22:55.782Z,22.06
2023-04-07T16:25:23.073Z,21.69
2023-04-07T16:27:52.909Z,21.44
2023-04-07T16:30:20.905Z,21.20
2023-04-07T16:32:47.954Z,20.98
2023-04-07T16:35:16.688Z,20.75
2023-04-07T16:37:46.411Z,20.70
2023-04-07T16:40:13.806Z,20.75
2023-04-07T16:42:40.956Z,20.84
2023-04-07T16:45:08.880Z,20.93
2023-04-07T16:47:37.741Z,20.97
2023-04-07T16:50:05.901Z,20.97
2023-04-07T16:52:34.136Z,20.96
2023-04-07T16:55:01.259Z,20.87
2023-04-07T16:57:28.579Z,20.84
2023-04-07T16:59:55.636Z,20.85
2023-04-07T17:02:22.846Z,20.83
2023-04-07T17:04:50.078Z,20.75
2023-04-07T17:07:17.181Z,20.67
2023-04-07T17:09:45.591Z,20.64
2023-04-07T17:12:13.612Z,20.61
2023-04-07T17:14:40.685Z,20.61
2023-04-07T17:17:07.632Z,20.56
2023-04-07T17:19:35.553Z,20.51
2023-04-07T17:22:02.531Z,20.53
2023-04-07T17:24:29.474Z,20.51
2023-04-07T17:26:57.821Z,20.49
2023-04-07T17:29:28.837Z,20.40
2023-04-07T17:31:56.594Z,20.22
2023-04-07T17:34:23.610Z,19.99
2023-04-07T17:36:51.570Z,19.82
2023-04-07T17:39:18.574Z,19.66
2023-04-07T17:41:46.840Z,19.47
2023-04-07T17:44:15.562Z,19.31
2023-04-07T17:46:42.632Z,19.14
2023-04-07T17:49:09.954Z,19.01
2023-04-07T17:51:37.388Z,18.91
2023-04-07T17:54:04.473Z,18.84
2023-04-07T17:56:31.500Z,18.71
2023-04-07T17:58:58.639Z,18.58
2023-04-07T18:01:27.114Z,18.45
2023-04-07T18:03:54.352Z,18.37
2023-04-07T18:06:21.866Z,18.29
2023-04-07T18:08:49.155Z,18.24
2023-04-07T18:11:17.260Z,18.21
2023-04-07T18:13:44.798Z,18.17
2023-04-07T18:16:17.295Z,18.08
2023-04-07T18:18:47.605Z,17.89
2023-04-07T18:21:14.668Z,17.71
2023-04-07T18:23:41.584Z,17.55
2023-04-07T18:26:08.542Z,17.37
2023-04-07T18:28:35.805Z,17.19
2023-04-07T18:31:06.377Z,16.98
2023-04-07T18:33:34.119Z,16.87
2023-04-07T18:36:04.917Z,16.73
2023-04-07T18:38:31.952Z,16.59
2023-04-07T18:40:59.209Z,16.44
2023-04-07T18:43:26.534Z,16.22
2023-04-07T18:45:53.468Z,16.09
2023-04-07T18:48:21.530Z,16.00
2023-04-07T18:50:52.570Z,15.86
2023-04-07T18:53:22.867Z,15.82
2023-04-07T18:55:50.342Z,15.75
2023-04-07T18:58:17.358Z,15.73
2023-04-07T19:00:44.596Z,15.73
2023-04-07T19:03:12.138Z,15.67
2023-04-07T19:05:40.115Z,15.69
2023-04-07T19:08:07.942Z,15.73
2023-04-07T19:10:36.213Z,15.77
2023-04-07T19:13:04.387Z,15.81
2023-04-07T19:15:34.256Z,15.78
2023-04-07T19:18:02.413Z,15.69
2023-04-07T19:20:33.755Z,15.66
2023-04-07T19:23:01.673Z,15.59
2023-04-07T19:25:28.821Z,15.51
2023-04-07T19:27:57.563Z,15.50
2023-04-07T19:30:24.729Z,15.43
2023-04-07T19:32:52.229Z,15.39
2023-04-07T19:35:19.585Z,15.33
2023-04-07T19:37:48.083Z,15.23
2023-04-07T19:40:15.522Z,15.16
2023-04-07T19:42:42.674Z,15.03
2023-04-07T19:45:11.409Z,14.91
2023-04-07T19:47:39.043Z,14.84
2023-04-07T19:50:08.720Z,14.77
2023-04-07T19:52:35.681Z,14.70
2023-04-07T19:55:03.669Z,14.62
2023-04-07T19:57:34.030Z,14.56
2023-04-07T20:00:00.935Z,14.47
2023-04-07T20:02:29.299Z,14.45
2023-04-07T20:04:57.223Z,14.44
2023-04-07T20:07:24.097Z,14.37
2023-04-07T20:09:51.568Z,14.32
2023-04-07T20:12:18.551Z,14.32
2023-04-07T20:14:45.727Z,14.27
2023-04-07T20:17:12.790Z,14.21
2023-04-07T20:19:41.768Z,14.16
2023-04-07T20:22:09.409Z,14.11
2023-04-07T20:24:37.080Z,14.04
2023-04-07T20:27:04.499Z,14.01
2023-04-07T20:29:31.402Z,13.97
2023-04-07T20:31:58.430Z,13.92
2023-04-07T20:34:25.752Z,13.88
2023-04-07T20:36:54.057Z,13.85
2023-04-07T20:39:20.956Z,13.81
2023-04-07T20:41:47.952Z,13.77
2023-04-07T20:44:14.944Z,13.75
2023-04-07T20:46:43.710Z,13.78
2023-04-07T20:49:10.774Z,13.76
2023-04-07T20:51:37.791Z,13.70
2023-04-07T20:54:06.139Z,13.70
2023-04-07T20:56:33.133Z,13.62
2023-04-07T20:59:00.052Z,13.60
2023-04-07T21:01:27.132Z,13.56
2023-04-07T21:03:54.859Z,13.54
2023-04-07T21:06:21.841Z,13.52
2023-04-07T21:08:49.135Z,13.48
2023-04-07T21:11:17.693Z,13.47
2023-04-07T21:13:44.622Z,13.45
2023-04-07T21:16:11.629Z,13.44
2023-04-07T21:18:38.697Z,13.42
2023-04-07T21:21:07.991Z,13.37
2023-04-07T21:23:35.012Z,13.34
2023-04-07T21:26:03.143Z,13.34
2023-04-07T21:28:31.489Z,13.31
2023-04-07T21:30:58.516Z,13.29
2023-04-07T21:33:25.603Z,13.27
2023-04-07T21:35:52.944Z,13.26
2023-04-07T21:38:19.908Z,13.23
2023-04-07T21:40:46.873Z,13.20
2023-04-07T21:43:13.786Z,13.19
2023-04-07T21:45:41.986Z,13.20
2023-04-07T21:48:09.091Z,13.21
2023-04-07T21:50:36.880Z,13.24
2023-04-07T21:53:03.837Z,13.21
2023-04-07T21:55:30.878Z,13.19
2023-04-07T21:57:58.145Z,13.17
2023-04-07T22:00:25.192Z,13.14
2023-04-07T22:02:54.568Z,13.12
2023-04-07T22:05:22.005Z,13.12
2023-04-07T22:07:49.184Z,13.12
2023-04-07T22:10:16.606Z,13.10
2023-04-07T22:12:43.708Z,13.11
2023-04-07T22:15:12.874Z,13.11
2023-04-07T22:17:40.221Z,13.12
2023-04-07T22:20:11.342Z,13.13
2023-04-07T22:22:39.002Z,13.13
2023-04-07T22:25:07.130Z,13.15
2023-04-07T22:27:35.258Z,13.17
2023-04-07T22:30:02.916Z,13.17
2023-04-07T22:32:30.818Z,13.18
2023-04-07T22:34:58.095Z,13.17
2023-04-07T22:37:26.350Z,13.18
2023-04-07T22:39:53.434Z,13.19
2023-04-07T22:42:20.349Z,13.20
2023-04-07T22:44:47.216Z,13.20
2023-04-07T22:47:14.283Z,13.24
2023-04-07T22:49:41.936Z,13.29
2023-04-07T22:52:09.196Z,13.35
2023-04-07T22:54:37.513Z,13.39
2023-04-07T22:57:04.775Z,13.42
2023-04-07T22:59:31.748Z,13.43
2023-04-07T23:01:58.816Z,13.42
2023-04-07T23:04:25.947Z,13.39
2023-04-07T23:06:53.171Z,13.39
2023-04-07T23:09:20.194Z,13.39
2023-04-07T23:11:48.788Z,13.39
2023-04-07T23:14:16.365Z,13.36
2023-04-07T23:16:43.313Z,13.35
2023-04-07T23:19:15.604Z,13.35
2023-04-07T23:21:43.297Z,13.37
2023-04-07T23:24:10.325Z,13.42
2023-04-07T23:26:37.326Z,13.48
2023-04-07T23:29:05.723Z,13.51
2023-04-07T23:31:32.654Z,13.54
2023-04-07T23:33:59.816Z,13.57
2023-04-07T23:36:27.131Z,13.60
2023-04-07T23:38:54.856Z,13.55
2023-04-07T23:41:22.086Z,13.50
2023-04-07T23:43:49.019Z,13.46
2023-04-07T23:46:17.326Z,13.47
2023-04-07T23:48:44.373Z,13.42
2023-04-07T23:51:12.634Z,13.41
2023-04-07T23:53:39.584Z,13.38
2023-04-07T23:56:07.252Z,13.37
2023-04-07T23:58:34.137Z,13.35
